createdAt,value
2022-11-15T00:00:52.865Z,3.35
2022-11-15T00:03:29.230Z,2.90
2022-11-15T00:05:56.004Z,3.35
2022-11-15T00:08:22.580Z,3.25
2022-11-15T00:11:02.820Z,3.25
2022-11-15T00:13:30.722Z,3.17
2022-11-15T00:15:59.322Z,3.30
2022-11-15T00:18:26.282Z,3.33
2022-11-15T00:20:52.847Z,3.50
2022-11-15T00:23:19.472Z,3.28
2022-11-15T00:25:46.007Z,2.97
2022-11-15T00:28:12.876Z,3.17
2022-11-15T00:30:39.405Z,2.70
2022-11-15T00:33:06.864Z,2.92
2022-11-15T00:35:34.742Z,2.92
2022-11-15T00:38:02.075Z,2.63
2022-11-15T00:40:29.192Z,2.90
2022-11-15T00:42:56.188Z,2.60
2022-11-15T00:45:23.733Z,2.90
2022-11-15T00:47:50.671Z,3.03
2022-11-15T00:50:17.598Z,2.38
2022-11-15T00:52:44.805Z,2.67
2022-11-15T00:55:18.997Z,2.58
2022-11-15T00:57:46.353Z,2.42
2022-11-15T01:00:13.997Z,2.30
2022-11-15T01:02:40.521Z,2.42
2022-11-15T01:05:07.780Z,2.50
2022-11-15T01:07:34.457Z,2.40
2022-11-15T01:10:01.162Z,2.22
2022-11-15T01:12:27.740Z,2.25
2022-11-15T01:14:54.278Z,2.78
2022-11-15T01:17:20.837Z,2.33
2022-11-15T01:19:47.400Z,2.67
2022-11-15T01:22:13.928Z,2.30
2022-11-15T01:24:40.526Z,2.60
2022-11-15T01:27:07.241Z,2.47
2022-11-15T01:29:34.005Z,2.30
2022-11-15T01:32:00.545Z,2.35
2022-11-15T01:34:27.117Z,2.25
2022-11-15T01:36:53.670Z,2.40
2022-11-15T01:39:20.240Z,2.50
2022-11-15T01:41:46.775Z,2.22
2022-11-15T01:44:38.672Z,2.15
2022-11-15T01:47:20.325Z,2.38
2022-11-15T01:50:00.315Z,2.03
2022-11-15T01:52:30.018Z,1.95
2022-11-15T01:55:14.425Z,2.30
2022-11-15T01:57:45.115Z,2.55
2022-11-15T02:00:12.595Z,2.30
2022-11-15T02:02:40.216Z,2.10
2022-11-15T02:05:07.334Z,2.38
2022-11-15T02:07:35.833Z,1.98
2022-11-15T02:10:15.486Z,2.30
2022-11-15T02:12:42.816Z,1.95
2022-11-15T02:15:10.330Z,2.10
2022-11-15T02:17:36.788Z,1.85
2022-11-15T02:20:34.159Z,2.00
2022-11-15T02:23:29.897Z,2.30
2022-11-15T02:26:31.808Z,2.05
2022-11-15T02:29:16.857Z,1.85
2022-11-15T02:31:58.461Z,2.05
2022-11-15T02:34:54.124Z,2.10
2022-11-15T02:37:29.488Z,2.05
2022-11-15T02:40:09.569Z,2.08
2022-11-15T02:43:08.283Z,2.30
2022-11-15T02:45:40.648Z,1.98
2022-11-15T02:48:10.135Z,2.00
2022-11-15T02:50:36.729Z,2.00
2022-11-15T02:53:04.880Z,1.65
2022-11-15T02:55:37.002Z,2.15
2022-11-15T02:58:26.126Z,2.13
2022-11-15T03:01:22.439Z,2.40
2022-11-15T03:04:29.975Z,1.98
2022-11-15T03:07:11.915Z,2.00
2022-11-15T03:09:58.217Z,1.92
2022-11-15T03:12:39.789Z,2.30
2022-11-15T03:15:24.765Z,1.90
2022-11-15T03:18:03.162Z,2.13
2022-11-15T03:20:31.374Z,2.05
2022-11-15T03:23:11.806Z,2.00
2022-11-15T03:25:44.572Z,2.10
2022-11-15T03:28:14.715Z,2.50
2022-11-15T03:30:42.528Z,1.92
2022-11-15T03:33:10.556Z,2.40
2022-11-15T03:35:42.440Z,2.10
2022-11-15T03:38:08.932Z,2.63
2022-11-15T03:40:41.761Z,2.60
2022-11-15T03:43:29.678Z,2.35
2022-11-15T03:46:12.297Z,2.47
2022-11-15T03:48:44.620Z,2.30
2022-11-15T03:51:12.162Z,2.67
2022-11-15T03:53:38.799Z,2.30
2022-11-15T03:56:05.510Z,2.42
2022-11-15T03:58:32.020Z,3.05
2022-11-15T04:01:00.415Z,2.40
2022-11-15T04:03:27.185Z,2.72
2022-11-15T04:05:53.712Z,2.55
2022-11-15T04:08:20.252Z,2.80
2022-11-15T04:10:49.884Z,2.90
2022-11-15T04:13:16.416Z,2.60
2022-11-15T04:15:42.941Z,2.78
2022-11-15T04:18:09.497Z,2.55
2022-11-15T04:20:54.775Z,2.53
2022-11-15T04:23:41.716Z,2.72
2022-11-15T04:26:12.603Z,2.78
2022-11-15T04:28:59.465Z,2.92
2022-11-15T04:31:26.227Z,2.88
2022-11-15T04:33:53.306Z,2.75
2022-11-15T04:36:41.166Z,2.92
2022-11-15T04:39:07.751Z,2.88
2022-11-15T04:41:34.374Z,3.13
2022-11-15T04:44:01.071Z,2.63
2022-11-15T04:46:27.840Z,2.80
2022-11-15T04:48:58.707Z,3.20
2022-11-15T04:51:26.299Z,2.70
2022-11-15T04:53:52.833Z,2.95
2022-11-15T04:56:19.474Z,3.25
2022-11-15T04:58:45.995Z,3.10
2022-11-15T05:01:15.681Z,3.00
2022-11-15T05:04:01.962Z,3.00
2022-11-15T05:06:28.588Z,2.70
2022-11-15T05:08:55.430Z,2.90
2022-11-15T05:11:22.884Z,3.13
2022-11-15T05:13:49.901Z,3.00
2022-11-15T05:16:16.451Z,2.90
2022-11-15T05:18:43.050Z,3.00
2022-11-15T05:21:15.930Z,2.97
2022-11-15T05:23:42.761Z,2.85
2022-11-15T05:26:09.932Z,3.28
2022-11-15T05:28:37.622Z,3.10
2022-11-15T05:31:04.177Z,3.30
2022-11-15T05:33:32.323Z,3.03
2022-11-15T05:36:03.585Z,3.05
2022-11-15T05:38:30.161Z,3.08
2022-11-15T05:40:56.747Z,3.35
2022-11-15T05:43:24.334Z,3.42
2022-11-15T05:45:51.285Z,3.03
2022-11-15T05:48:18.414Z,3.03
2022-11-15T05:50:48.231Z,2.97
2022-11-15T05:53:19.965Z,3.10
2022-11-15T05:55:46.589Z,3.20
2022-11-15T05:58:13.169Z,3.10
2022-11-15T06:00:40.418Z,3.30
2022-11-15T06:03:06.957Z,3.13
2022-11-15T06:05:33.476Z,3.05
2022-11-15T06:08:00.162Z,3.10
2022-11-15T06:10:26.781Z,3.20
2022-11-15T06:13:04.159Z,3.00
2022-11-15T06:15:30.741Z,2.92
2022-11-15T06:18:00.880Z,3.35
2022-11-15T06:20:29.694Z,3.30
2022-11-15T06:23:01.116Z,3.20
2022-11-15T06:25:31.968Z,2.90
2022-11-15T06:27:59.620Z,3.40
2022-11-15T06:30:27.494Z,3.20
2022-11-15T06:33:01.525Z,3.20
2022-11-15T06:35:28.511Z,3.10
2022-11-15T06:37:55.449Z,3.42
2022-11-15T06:40:22.086Z,2.75
2022-11-15T06:42:48.595Z,3.08
2022-11-15T06:45:15.152Z,3.38
2022-11-15T06:47:48.637Z,3.35
2022-11-15T06:50:15.420Z,3.30
2022-11-15T06:52:41.982Z,3.55
2022-11-15T06:55:09.352Z,3.33
2022-11-15T06:57:37.000Z,3.00
2022-11-15T07:00:07.294Z,3.60
2022-11-15T07:02:33.839Z,3.20
2022-11-15T07:05:00.370Z,3.40
2022-11-15T07:07:27.090Z,3.60
2022-11-15T07:09:53.729Z,3.20
2022-11-15T07:12:20.321Z,3.60
2022-11-15T07:14:47.102Z,3.40
2022-11-15T07:17:13.639Z,3.42
2022-11-15T07:19:40.217Z,3.58
2022-11-15T07:22:06.761Z,2.88
2022-11-15T07:24:33.293Z,3.28
2022-11-15T07:26:59.963Z,3.85
2022-11-15T07:29:26.789Z,3.47
2022-11-15T07:31:53.342Z,3.33
2022-11-15T07:34:19.857Z,3.45
2022-11-15T07:36:46.442Z,3.50
2022-11-15T07:39:13.251Z,3.60
2022-11-15T07:41:39.823Z,3.45
2022-11-15T07:44:06.552Z,3.30
2022-11-15T07:46:33.144Z,3.10
2022-11-15T07:48:59.691Z,3.58
2022-11-15T07:51:26.265Z,3.50
2022-11-15T07:53:52.832Z,3.47
2022-11-15T07:56:19.779Z,3.22
2022-11-15T07:58:47.146Z,3.53
2022-11-15T08:01:14.271Z,3.63
2022-11-15T08:03:40.933Z,3.75
2022-11-15T08:06:07.630Z,3.42
2022-11-15T08:08:34.157Z,3.25
2022-11-15T08:11:01.152Z,3.50
2022-11-15T08:13:28.289Z,3.55
2022-11-15T08:16:02.545Z,3.53
2022-11-15T08:18:29.181Z,3.70
2022-11-15T08:21:00.364Z,3.50
2022-11-15T08:23:26.924Z,3.35
2022-11-15T08:25:53.454Z,3.53
2022-11-15T08:28:20.023Z,3.60
2022-11-15T08:30:46.607Z,3.45
2022-11-15T08:33:14.931Z,3.45
2022-11-15T08:35:43.992Z,2.85
2022-11-15T08:38:11.170Z,3.47
2022-11-15T08:40:38.602Z,3.80
2022-11-15T08:43:05.616Z,3.60
2022-11-15T08:45:32.787Z,3.40
2022-11-15T08:48:03.064Z,3.50
2022-11-15T08:50:29.785Z,3.80
2022-11-15T08:52:56.322Z,3.83
2022-11-15T08:55:24.792Z,3.88
2022-11-15T08:57:51.598Z,3.80
2022-11-15T09:00:18.455Z,3.67
2022-11-15T09:02:44.993Z,3.67
2022-11-15T09:05:11.602Z,4.00
2022-11-15T09:07:38.181Z,3.53
2022-11-15T09:10:05.179Z,3.60
2022-11-15T09:12:31.763Z,3.80
2022-11-15T09:14:59.139Z,3.83
2022-11-15T09:17:25.776Z,4.18
2022-11-15T09:19:52.597Z,4.10
2022-11-15T09:22:19.481Z,3.70
2022-11-15T09:24:46.355Z,3.58
2022-11-15T09:27:14.239Z,3.40
2022-11-15T09:29:40.849Z,3.60
2022-11-15T09:32:07.389Z,3.30
2022-11-15T09:34:33.936Z,2.75
2022-11-15T09:37:00.470Z,3.30
2022-11-15T09:39:27.120Z,3.83
2022-11-15T09:42:31.086Z,3.60
2022-11-15T09:45:05.972Z,3.45
2022-11-15T09:47:44.647Z,3.40
2022-11-15T09:50:15.108Z,3.45
2022-11-15T09:52:45.331Z,3.50
2022-11-15T09:55:15.589Z,3.20
2022-11-15T09:57:57.650Z,3.28
2022-11-15T10:00:46.634Z,3.40
2022-11-15T10:03:26.302Z,3.17
2022-11-15T10:05:56.728Z,3.20
2022-11-15T10:09:00.704Z,3.13
2022-11-15T10:11:38.935Z,3.00
2022-11-15T10:14:21.383Z,3.28
2022-11-15T10:17:19.819Z,3.30
2022-11-15T10:20:06.628Z,2.95
2022-11-15T10:22:49.393Z,2.88
2022-11-15T10:25:27.749Z,3.00
2022-11-15T10:28:07.615Z,3.08
2022-11-15T10:30:55.360Z,3.22
2022-11-15T10:33:35.289Z,2.75
2022-11-15T10:36:13.918Z,2.83
2022-11-15T10:38:49.549Z,2.90
2022-11-15T10:41:30.503Z,2.50
2022-11-15T10:44:17.506Z,2.50
2022-11-15T10:46:51.545Z,2.78
2022-11-15T10:49:32.040Z,2.70
2022-11-15T10:52:17.598Z,2.63
2022-11-15T10:54:49.521Z,2.80
2022-11-15T10:57:23.662Z,2.60
2022-11-15T10:59:54.926Z,2.80
2022-11-15T11:02:58.397Z,2.70
2022-11-15T11:05:42.074Z,2.42
2022-11-15T11:08:12.100Z,3.00
2022-11-15T11:11:01.362Z,2.85
2022-11-15T11:13:32.753Z,2.53
2022-11-15T11:16:14.469Z,2.50
2022-11-15T11:18:50.146Z,2.85
2022-11-15T11:21:45.768Z,2.30
2022-11-15T11:24:40.638Z,2.20
2022-11-15T11:27:58.453Z,2.28
2022-11-15T11:30:40.284Z,2.05
2022-11-15T11:33:11.644Z,2.17
2022-11-15T11:36:02.698Z,2.00
2022-11-15T11:39:06.971Z,2.35
2022-11-15T11:41:48.872Z,1.92
2022-11-15T11:45:04.995Z,2.00
2022-11-15T11:47:41.257Z,2.15
2022-11-15T11:50:29.005Z,2.20
2022-11-15T11:53:13.358Z,2.38
2022-11-15T11:55:48.625Z,2.20
2022-11-15T11:58:37.645Z,2.33
2022-11-15T12:01:35.833Z,2.15
2022-11-15T12:04:10.919Z,1.98
2022-11-15T12:06:48.434Z,2.30
2022-11-15T12:09:18.056Z,1.92
2022-11-15T12:12:02.992Z,2.00
2022-11-15T12:14:44.945Z,1.92
2022-11-15T12:17:12.911Z,2.17
2022-11-15T12:19:40.985Z,2.28
2022-11-15T12:22:17.865Z,1.73
2022-11-15T12:24:55.695Z,1.98
2022-11-15T12:27:38.531Z,2.05
2022-11-15T12:30:21.671Z,2.08
2022-11-15T12:32:59.784Z,2.00
2022-11-15T12:35:34.235Z,2.00
2022-11-15T12:38:01.490Z,1.80
2022-11-15T12:40:37.696Z,1.70
2022-11-15T12:43:16.552Z,1.58
2022-11-15T12:45:45.211Z,1.70
2022-11-15T12:48:17.708Z,1.80
2022-11-15T12:50:54.524Z,1.80
2022-11-15T12:53:24.316Z,1.70
2022-11-15T12:56:17.796Z,1.80
2022-11-15T12:58:53.475Z,1.98
2022-11-15T13:01:35.222Z,1.80
2022-11-15T13:04:19.918Z,1.65
2022-11-15T13:06:55.233Z,1.77
2022-11-15T13:09:30.856Z,1.70
2022-11-15T13:11:58.901Z,1.50
2022-11-15T13:14:43.535Z,1.48
2022-11-15T13:17:31.984Z,1.50
2022-11-15T13:20:07.539Z,1.40
2022-11-15T13:22:59.290Z,1.60
2022-11-15T13:25:38.860Z,1.70
2022-11-15T13:28:17.272Z,1.83
2022-11-15T13:31:21.519Z,1.50
2022-11-15T13:33:48.221Z,1.48
2022-11-15T13:36:27.701Z,1.70
2022-11-15T13:39:15.819Z,1.50
2022-11-15T13:41:50.767Z,1.90
2022-11-15T13:44:26.394Z,1.70
2022-11-15T13:47:14.749Z,1.58
2022-11-15T13:49:41.952Z,1.50
2022-11-15T13:52:15.354Z,1.40
2022-11-15T13:54:59.073Z,1.40
2022-11-15T13:57:31.221Z,1.63
2022-11-15T14:00:03.245Z,1.40
2022-11-15T14:02:35.764Z,1.60
2022-11-15T14:05:23.080Z,1.42
2022-11-15T14:08:04.864Z,1.63
2022-11-15T14:10:38.490Z,1.48
2022-11-15T14:13:11.444Z,1.55
2022-11-15T14:15:39.872Z,1.50
2022-11-15T14:18:07.419Z,1.60
2022-11-15T14:20:39.641Z,1.40
2022-11-15T14:23:29.016Z,1.45
2022-11-15T14:26:00.267Z,1.42
2022-11-15T14:28:26.773Z,1.70
2022-11-15T14:30:55.650Z,1.50
2022-11-15T14:33:33.898Z,1.60
2022-11-15T14:36:16.750Z,1.50
2022-11-15T14:38:44.044Z,1.80
2022-11-15T14:41:27.295Z,1.45
2022-11-15T14:43:54.236Z,1.50
2022-11-15T14:46:20.817Z,1.70
2022-11-15T14:48:47.391Z,1.90
2022-11-15T14:51:16.452Z,1.45
2022-11-15T14:53:44.054Z,1.50
2022-11-15T14:56:11.539Z,1.58
2022-11-15T14:58:38.241Z,1.30
2022-11-15T15:01:15.375Z,1.60
2022-11-15T15:03:42.036Z,1.67
2022-11-15T15:06:15.040Z,1.20
2022-11-15T15:08:44.361Z,1.20
2022-11-15T15:11:21.640Z,1.50
2022-11-15T15:13:48.646Z,1.17
2022-11-15T15:16:15.227Z,1.17
2022-11-15T15:18:41.828Z,1.20
2022-11-15T15:21:38.629Z,1.58
2022-11-15T15:24:05.344Z,1.50
2022-11-15T15:26:36.012Z,1.20
2022-11-15T15:29:02.751Z,1.15
2022-11-15T15:31:29.447Z,1.30
2022-11-15T15:33:56.177Z,1.58
2022-11-15T15:36:22.755Z,1.10
2022-11-15T15:38:49.318Z,1.60
2022-11-15T15:41:17.523Z,1.40
2022-11-15T15:43:44.902Z,1.40
2022-11-15T15:46:16.783Z,1.20
2022-11-15T15:48:43.833Z,1.40
2022-11-15T15:51:18.462Z,1.10
2022-11-15T15:53:46.933Z,1.17
2022-11-15T15:56:13.536Z,1.20
2022-11-15T15:58:40.125Z,1.45
2022-11-15T16:01:06.846Z,1.10
2022-11-15T16:03:33.968Z,1.25
2022-11-15T16:06:00.611Z,1.27
2022-11-15T16:08:31.938Z,1.48
2022-11-15T16:11:07.224Z,1.38
2022-11-15T16:13:33.976Z,1.30
2022-11-15T16:16:01.290Z,1.17
2022-11-15T16:18:27.906Z,1.40
2022-11-15T16:20:57.670Z,1.35
2022-11-15T16:23:25.498Z,1.10
2022-11-15T16:25:56.385Z,1.10
2022-11-15T16:28:28.045Z,1.33
2022-11-15T16:31:11.898Z,1.00
2022-11-15T16:33:39.236Z,1.30
2022-11-15T16:36:15.318Z,0.95
2022-11-15T16:38:41.875Z,1.20
2022-11-15T16:41:08.456Z,1.20
2022-11-15T16:43:35.021Z,1.42
2022-11-15T16:46:13.673Z,0.90
2022-11-15T16:48:40.681Z,1.02
2022-11-15T16:51:07.829Z,1.10
2022-11-15T16:53:34.411Z,1.00
2022-11-15T16:56:01.058Z,1.20
2022-11-15T16:58:28.103Z,1.00
2022-11-15T17:00:56.095Z,1.00
2022-11-15T17:03:24.689Z,1.00
2022-11-15T17:05:52.077Z,1.10
2022-11-15T17:08:21.804Z,1.05
2022-11-15T17:10:48.579Z,1.10
2022-11-15T17:13:17.850Z,1.20
2022-11-15T17:15:44.492Z,1.00
2022-11-15T17:18:12.967Z,0.95
2022-11-15T17:20:40.869Z,1.10
2022-11-15T17:23:18.325Z,1.20
2022-11-15T17:25:44.925Z,0.90
2022-11-15T17:28:11.741Z,1.10
2022-11-15T17:30:42.213Z,1.10
2022-11-15T17:33:08.782Z,1.20
2022-11-15T17:35:35.433Z,1.00
2022-11-15T17:38:01.984Z,1.13
2022-11-15T17:40:28.548Z,1.10
2022-11-15T17:42:56.963Z,0.98
2022-11-15T17:45:23.507Z,1.10
2022-11-15T17:47:50.110Z,1.33
2022-11-15T17:50:17.917Z,1.08
2022-11-15T17:52:44.630Z,0.90
2022-11-15T17:55:11.290Z,1.00
2022-11-15T17:57:37.931Z,1.10
2022-11-15T18:00:04.978Z,1.00
2022-11-15T18:02:31.559Z,0.90
2022-11-15T18:04:58.317Z,0.80
2022-11-15T18:07:24.973Z,1.00
2022-11-15T18:09:51.828Z,0.93
2022-11-15T18:12:19.912Z,1.10
2022-11-15T18:14:46.770Z,1.10
2022-11-15T18:17:13.445Z,0.88
2022-11-15T18:19:40.146Z,0.90
2022-11-15T18:22:09.824Z,1.00
2022-11-15T18:24:38.527Z,0.80
2022-11-15T18:27:06.602Z,0.88
2022-11-15T18:29:34.641Z,1.10
2022-11-15T18:32:04.996Z,1.08
2022-11-15T18:34:32.124Z,0.90
2022-11-15T18:36:59.882Z,0.90
2022-11-15T18:39:26.535Z,0.77
2022-11-15T18:41:53.134Z,1.00
2022-11-15T18:44:20.006Z,1.00
2022-11-15T18:46:46.934Z,0.90
2022-11-15T18:49:16.506Z,1.08
2022-11-15T18:51:43.579Z,1.02
2022-11-15T18:54:11.672Z,0.90
2022-11-15T18:56:39.169Z,0.90
2022-11-15T18:59:06.742Z,0.90
2022-11-15T19:01:35.772Z,0.82
2022-11-15T19:04:08.324Z,1.00
2022-11-15T19:06:38.936Z,0.90
2022-11-15T19:09:06.440Z,1.10
2022-11-15T19:11:35.843Z,0.95
2022-11-15T19:14:05.189Z,1.00
2022-11-15T19:16:36.951Z,1.08
2022-11-15T19:19:06.972Z,1.10
2022-11-15T19:21:34.562Z,1.20
2022-11-15T19:24:01.551Z,1.00
2022-11-15T19:26:29.393Z,1.10
2022-11-15T19:29:01.700Z,1.38
2022-11-15T19:31:30.116Z,1.17
2022-11-15T19:33:59.414Z,1.20
2022-11-15T19:36:28.791Z,0.90
2022-11-15T19:38:56.256Z,0.90
2022-11-15T19:41:24.480Z,1.00
2022-11-15T19:43:51.874Z,1.10
2022-11-15T19:46:20.677Z,1.10
2022-11-15T19:48:48.085Z,1.10
2022-11-15T19:51:19.362Z,1.10
2022-11-15T19:53:46.018Z,1.00
2022-11-15T19:56:17.448Z,1.30
2022-11-15T19:58:44.777Z,1.05
2022-11-15T20:01:23.069Z,0.93
2022-11-15T20:03:50.980Z,1.08
2022-11-15T20:06:19.480Z,1.10
2022-11-15T20:08:47.860Z,1.20
2022-11-15T20:11:15.532Z,0.90
2022-11-15T20:13:42.833Z,1.10
2022-11-15T20:16:14.684Z,1.17
2022-11-15T20:18:41.296Z,0.90
2022-11-15T20:21:08.812Z,1.00
2022-11-15T20:23:35.392Z,0.93
2022-11-15T20:26:01.953Z,1.05
2022-11-15T20:28:29.327Z,1.17
2022-11-15T20:30:59.080Z,1.05
2022-11-15T20:33:26.698Z,1.13
2022-11-15T20:35:54.337Z,1.02
2022-11-15T20:38:21.575Z,0.93
2022-11-15T20:40:49.477Z,0.93
2022-11-15T20:43:18.143Z,1.10
2022-11-15T20:45:46.604Z,0.90
2022-11-15T20:48:13.981Z,1.08
2022-11-15T20:50:43.243Z,1.02
2022-11-15T20:53:12.080Z,0.90
2022-11-15T20:55:43.481Z,1.17
2022-11-15T20:58:10.959Z,1.08
2022-11-15T21:00:38.123Z,1.15
2022-11-15T21:03:08.727Z,1.23
2022-11-15T21:05:38.551Z,0.85
2022-11-15T21:08:05.564Z,1.00
2022-11-15T21:10:50.505Z,1.15
2022-11-15T21:13:17.259Z,0.90
2022-11-15T21:15:43.920Z,1.20
2022-11-15T21:18:10.499Z,1.08
2022-11-15T21:20:37.108Z,1.20
2022-11-15T21:23:03.737Z,1.20
2022-11-15T21:25:30.414Z,1.00
2022-11-15T21:27:56.976Z,0.98
2022-11-15T21:30:23.605Z,1.00
2022-11-15T21:32:50.268Z,1.00
2022-11-15T21:35:17.140Z,1.05
2022-11-15T21:37:43.780Z,1.20
2022-11-15T21:40:11.347Z,1.10
2022-11-15T21:42:37.920Z,1.30
2022-11-15T21:45:05.046Z,1.00
2022-11-15T21:47:31.672Z,1.10
2022-11-15T21:49:58.266Z,1.13
2022-11-15T21:52:24.871Z,1.17
2022-11-15T21:54:51.414Z,1.17
2022-11-15T21:57:19.624Z,1.20
2022-11-15T22:00:04.605Z,1.05
2022-11-15T22:02:31.273Z,1.10
2022-11-15T22:04:57.877Z,1.20
2022-11-15T22:07:24.535Z,1.20
2022-11-15T22:09:51.289Z,1.10
2022-11-15T22:12:17.853Z,1.40
2022-11-15T22:14:44.404Z,1.40
2022-11-15T22:17:11.482Z,1.20
2022-11-15T22:19:51.791Z,1.25
2022-11-15T22:22:19.109Z,1.60
2022-11-15T22:24:45.709Z,1.33
2022-11-15T22:27:12.319Z,1.70
2022-11-15T22:29:38.917Z,1.48
2022-11-15T22:32:05.576Z,1.70
2022-11-15T22:34:32.217Z,1.83
2022-11-15T22:37:19.746Z,1.70
2022-11-15T22:39:45.390Z,1.98
2022-11-15T22:42:12.081Z,1.92
2022-11-15T22:44:38.720Z,2.25
2022-11-15T22:47:05.440Z,1.98
2022-11-15T22:49:32.076Z,2.10
2022-11-15T22:51:58.755Z,2.58
2022-11-15T22:54:25.396Z,2.72
2022-11-15T22:56:52.128Z,2.58
2022-11-15T22:59:18.713Z,2.42
2022-11-15T23:01:45.718Z,2.53
2022-11-15T23:04:12.313Z,2.70
2022-11-15T23:06:38.910Z,2.70
2022-11-15T23:09:05.509Z,2.80
2022-11-15T23:11:50.742Z,2.92
2022-11-15T23:14:17.350Z,2.60
2022-11-15T23:16:43.947Z,2.60
2022-11-15T23:19:12.210Z,2.72
2022-11-15T23:21:59.478Z,2.70
2022-11-15T23:24:26.425Z,2.40
2022-11-15T23:26:56.466Z,2.88
2022-11-15T23:29:25.076Z,2.53
2022-11-15T23:32:12.231Z,2.80
2022-11-15T23:34:41.558Z,2.50
2022-11-15T23:37:09.863Z,2.35
2022-11-15T23:39:36.531Z,2.30
2022-11-15T23:42:08.794Z,2.65
2022-11-15T23:44:35.883Z,3.00
2022-11-15T23:47:02.503Z,2.50
2022-11-15T23:49:29.148Z,2.70
2022-11-15T23:51:55.795Z,2.58
2022-11-15T23:54:22.400Z,2.72
2022-11-15T23:56:49.015Z,2.80
2022-11-15T23:59:15.734Z,2.88
